sensor_id;sensor_type;location;lat;lon;timestamp;P1;durP1;ratioP1;P2;durP2;ratioP2
56997;SDS011;42890;44.244;22.530;2024-02-23T08:50:49;27.90;;;24.88;;
56997;SDS011;42890;44.244;22.530;2024-02-23T08:53:15;30.13;;;24.73;;
56997;SDS011;42890;44.244;22.530;2024-02-23T08:55:41;28.73;;;23.42;;
56997;SDS011;42890;44.244;22.530;2024-02-23T08:58:07;32.88;;;24.65;;
56997;SDS011;42890;44.244;22.530;2024-02-23T09:00:34;34.35;;;25.52;;
56997;SDS011;42890;44.244;22.530;2024-02-23T09:03:02;42.88;;;28.48;;
56997;SDS011;42890;44.244;22.530;2024-02-23T09:05:28;53.05;;;34.50;;
56997;SDS011;42890;44.244;22.530;2024-02-23T09:07:54;42.00;;;30.50;;
56997;SDS011;42890;44.244;22.530;2024-02-23T09:10:20;42.03;;;29.67;;
56997;SDS011;42890;44.244;22.530;2024-02-23T09:12:47;30.02;;;24.13;;
56997;SDS011;42890;44.244;22.530;2024-02-23T09:15:13;25.27;;;22.42;;
56997;SDS011;42890;44.244;22.530;2024-02-23T09:17:42;25.88;;;21.92;;
56997;SDS011;42890;44.244;22.530;2024-02-23T09:20:08;28.20;;;23.00;;
56997;SDS011;42890;44.244;22.530;2024-02-23T09:22:34;24.33;;;21.67;;
56997;SDS011;42890;44.244;22.530;2024-02-23T09:25:02;26.88;;;23.10;;
56997;SDS011;42890;44.244;22.530;2024-02-23T09:27:30;24.67;;;22.10;;
56997;SDS011;42890;44.244;22.530;2024-02-23T09:29:56;26.08;;;23.05;;
56997;SDS011;42890;44.244;22.530;2024-02-23T09:32:24;37.78;;;28.80;;
56997;SDS011;42890;44.244;22.530;2024-02-23T09:34:50;29.88;;;25.80;;
56997;SDS011;42890;44.244;22.530;2024-02-23T09:37:16;32.53;;;25.05;;
56997;SDS011;42890;44.244;22.530;2024-02-23T09:39:42;28.45;;;25.23;;
56997;SDS011;42890;44.244;22.530;2024-02-23T09:42:09;31.13;;;27.77;;
56997;SDS011;42890;44.244;22.530;2024-02-23T09:44:36;34.15;;;25.95;;
56997;SDS011;42890;44.244;22.530;2024-02-23T09:47:02;32.53;;;24.83;;
56997;SDS011;42890;44.244;22.530;2024-02-23T09:49:39;34.97;;;29.27;;
56997;SDS011;42890;44.244;22.530;2024-02-23T09:52:09;46.30;;;36.55;;
56997;SDS011;42890;44.244;22.530;2024-02-23T09:54:38;30.20;;;24.83;;
56997;SDS011;42890;44.244;22.530;2024-02-23T09:57:06;25.35;;;22.35;;
56997;SDS011;42890;44.244;22.530;2024-02-23T09:59:36;25.90;;;20.15;;
56997;SDS011;42890;44.244;22.530;2024-02-23T10:02:09;24.48;;;20.23;;
56997;SDS011;42890;44.244;22.530;2024-02-23T10:04:36;32.35;;;24.23;;
56997;SDS011;42890;44.244;22.530;2024-02-23T10:07:02;27.35;;;22.35;;
56997;SDS011;42890;44.244;22.530;2024-02-23T10:09:29;29.23;;;20.75;;
56997;SDS011;42890;44.244;22.530;2024-02-23T10:11:55;26.10;;;22.73;;
56997;SDS011;42890;44.244;22.530;2024-02-23T10:14:22;21.88;;;19.10;;
56997;SDS011;42890;44.244;22.530;2024-02-23T10:16:48;21.55;;;18.92;;
56997;SDS011;42890;44.244;22.530;2024-02-23T10:19:19;23.30;;;17.77;;
56997;SDS011;42890;44.244;22.530;2024-02-23T10:21:46;23.23;;;18.05;;
56997;SDS011;42890;44.244;22.530;2024-02-23T10:24:12;21.73;;;18.00;;
56997;SDS011;42890;44.244;22.530;2024-02-23T10:26:38;22.88;;;18.40;;
56997;SDS011;42890;44.244;22.530;2024-02-23T10:29:04;18.92;;;17.13;;
56997;SDS011;42890;44.244;22.530;2024-02-23T10:31:32;20.83;;;16.30;;
56997;SDS011;42890;44.244;22.530;2024-02-23T10:34:02;22.15;;;17.05;;
56997;SDS011;42890;44.244;22.530;2024-02-23T10:36:36;26.95;;;20.75;;
56997;SDS011;42890;44.244;22.530;2024-02-23T10:39:02;18.95;;;16.63;;
56997;SDS011;42890;44.244;22.530;2024-02-23T10:41:29;19.55;;;17.45;;
56997;SDS011;42890;44.244;22.530;2024-02-23T10:43:59;20.05;;;18.05;;
56997;SDS011;42890;44.244;22.530;2024-02-23T10:46:25;20.05;;;17.90;;
56997;SDS011;42890;44.244;22.530;2024-02-23T10:48:52;23.55;;;18.05;;
56997;SDS011;42890;44.244;22.530;2024-02-23T10:51:21;23.13;;;19.50;;
56997;SDS011;42890;44.244;22.530;2024-02-23T10:53:48;23.63;;;20.33;;
56997;SDS011;42890;44.244;22.530;2024-02-23T10:56:15;21.55;;;19.33;;
56997;SDS011;42890;44.244;22.530;2024-02-23T10:58:41;21.75;;;18.80;;
56997;SDS011;42890;44.244;22.530;2024-02-23T11:01:07;20.70;;;18.50;;
56997;SDS011;42890;44.244;22.530;2024-02-23T11:03:35;21.75;;;19.42;;
56997;SDS011;42890;44.244;22.530;2024-02-23T11:06:02;22.17;;;19.83;;
56997;SDS011;42890;44.244;22.530;2024-02-23T11:08:28;20.90;;;18.63;;
56997;SDS011;42890;44.244;22.530;2024-02-23T11:10:55;20.95;;;18.48;;
56997;SDS011;42890;44.244;22.530;2024-02-23T11:13:30;30.02;;;19.58;;
56997;SDS011;42890;44.244;22.530;2024-02-23T11:16:06;22.08;;;19.65;;
56997;SDS011;42890;44.244;22.530;2024-02-23T11:18:34;27.70;;;22.60;;
56997;SDS011;42890;44.244;22.530;2024-02-23T11:21:01;28.02;;;22.77;;
56997;SDS011;42890;44.244;22.530;2024-02-23T11:23:38;24.33;;;21.83;;
56997;SDS011;42890;44.244;22.530;2024-02-23T11:26:05;30.60;;;22.80;;
56997;SDS011;42890;44.244;22.530;2024-02-23T11:28:33;27.13;;;22.85;;
56997;SDS011;42890;44.244;22.530;2024-02-23T11:31:19;33.83;;;24.90;;
56997;SDS011;42890;44.244;22.530;2024-02-23T11:33:48;30.15;;;25.33;;
56997;SDS011;42890;44.244;22.530;2024-02-23T11:36:21;70.22;;;42.35;;
56997;SDS011;42890;44.244;22.530;2024-02-23T11:38:49;39.53;;;29.00;;
56997;SDS011;42890;44.244;22.530;2024-02-23T11:41:16;38.50;;;31.38;;
56997;SDS011;42890;44.244;22.530;2024-02-23T11:43:42;74.25;;;28.73;;
56997;SDS011;42890;44.244;22.530;2024-02-23T11:46:09;35.35;;;21.80;;
56997;SDS011;42890;44.244;22.530;2024-02-23T11:48:35;41.15;;;32.35;;
56997;SDS011;42890;44.244;22.530;2024-02-23T11:51:01;49.78;;;29.38;;
56997;SDS011;42890;44.244;22.530;2024-02-23T11:53:28;42.20;;;27.83;;
56997;SDS011;42890;44.244;22.530;2024-02-23T11:55:55;38.10;;;25.92;;
56997;SDS011;42890;44.244;22.530;2024-02-23T11:58:22;37.22;;;25.05;;
56997;SDS011;42890;44.244;22.530;2024-02-23T12:00:50;30.67;;;23.80;;
56997;SDS011;42890;44.244;22.530;2024-02-23T12:03:16;37.53;;;24.45;;
56997;SDS011;42890;44.244;22.530;2024-02-23T12:05:42;29.58;;;22.63;;
56997;SDS011;42890;44.244;22.530;2024-02-23T12:08:09;23.17;;;20.33;;
56997;SDS011;42890;44.244;22.530;2024-02-23T12:10:35;30.45;;;25.63;;
56997;SDS011;42890;44.244;22.530;2024-02-23T12:13:01;26.48;;;19.35;;
56997;SDS011;42890;44.244;22.530;2024-02-23T12:15:28;21.85;;;18.77;;
56997;SDS011;42890;44.244;22.530;2024-02-23T12:17:57;21.25;;;18.40;;
56997;SDS011;42890;44.244;22.530;2024-02-23T12:20:25;22.15;;;19.30;;
56997;SDS011;42890;44.244;22.530;2024-02-23T12:22:54;29.15;;;21.38;;
56997;SDS011;42890;44.244;22.530;2024-02-23T12:25:21;23.17;;;18.70;;
56997;SDS011;42890;44.244;22.530;2024-02-23T12:27:53;26.05;;;19.35;;
56997;SDS011;42890;44.244;22.530;2024-02-23T12:30:19;36.03;;;18.00;;
56997;SDS011;42890;44.244;22.530;2024-02-23T12:32:45;21.73;;;17.45;;
56997;SDS011;42890;44.244;22.530;2024-02-23T12:35:12;25.73;;;16.70;;
56997;SDS011;42890;44.244;22.530;2024-02-23T12:37:38;19.13;;;16.55;;
56997;SDS011;42890;44.244;22.530;2024-02-23T12:40:06;21.42;;;17.98;;
56997;SDS011;42890;44.244;22.530;2024-02-23T12:42:32;23.98;;;18.17;;
56997;SDS011;42890;44.244;22.530;2024-02-23T12:44:58;24.00;;;17.88;;
56997;SDS011;42890;44.244;22.530;2024-02-23T12:47:24;19.63;;;17.55;;
56997;SDS011;42890;44.244;22.530;2024-02-23T12:49:50;19.65;;;17.70;;
56997;SDS011;42890;44.244;22.530;2024-02-23T12:52:16;23.15;;;19.08;;
56997;SDS011;42890;44.244;22.530;2024-02-23T12:54:43;21.05;;;17.40;;
56997;SDS011;42890;44.244;22.530;2024-02-23T12:57:09;18.13;;;16.23;;
56997;SDS011;42890;44.244;22.530;2024-02-23T12:59:35;20.27;;;16.63;;
56997;SDS011;42890;44.244;22.530;2024-02-23T13:02:01;19.02;;;17.00;;
56997;SDS011;42890;44.244;22.530;2024-02-23T13:04:27;21.15;;;16.38;;
56997;SDS011;42890;44.244;22.530;2024-02-23T13:06:53;17.92;;;15.95;;
56997;SDS011;42890;44.244;22.530;2024-02-23T13:09:19;20.30;;;17.67;;
56997;SDS011;42890;44.244;22.530;2024-02-23T13:11:45;22.23;;;17.48;;
56997;SDS011;42890;44.244;22.530;2024-02-23T13:14:13;20.40;;;16.92;;
56997;SDS011;42890;44.244;22.530;2024-02-23T13:16:40;23.83;;;16.42;;
56997;SDS011;42890;44.244;22.530;2024-02-23T13:19:07;20.13;;;17.90;;
56997;SDS011;42890;44.244;22.530;2024-02-23T13:21:34;20.65;;;17.17;;
56997;SDS011;42890;44.244;22.530;2024-02-23T13:24:01;19.73;;;17.52;;
56997;SDS011;42890;44.244;22.530;2024-02-23T13:26:27;18.77;;;15.98;;
56997;SDS011;42890;44.244;22.530;2024-02-23T13:28:54;17.73;;;15.60;;
56997;SDS011;42890;44.244;22.530;2024-02-23T13:31:20;18.27;;;16.25;;
56997;SDS011;42890;44.244;22.530;2024-02-23T13:33:46;17.83;;;15.45;;
56997;SDS011;42890;44.244;22.530;2024-02-23T13:36:12;17.58;;;15.88;;
56997;SDS011;42890;44.244;22.530;2024-02-23T13:38:38;18.33;;;15.45;;
56997;SDS011;42890;44.244;22.530;2024-02-23T13:41:05;26.02;;;15.40;;
56997;SDS011;42890;44.244;22.530;2024-02-23T13:43:31;20.30;;;16.48;;
56997;SDS011;42890;44.244;22.530;2024-02-23T13:45:58;19.75;;;17.05;;
56997;SDS011;42890;44.244;22.530;2024-02-23T13:48:24;19.17;;;17.20;;
56997;SDS011;42890;44.244;22.530;2024-02-23T13:50:51;22.65;;;16.95;;
56997;SDS011;42890;44.244;22.530;2024-02-23T13:53:17;23.75;;;17.92;;
56997;SDS011;42890;44.244;22.530;2024-02-23T13:55:43;20.67;;;18.25;;
56997;SDS011;42890;44.244;22.530;2024-02-23T13:58:10;21.15;;;17.27;;
56997;SDS011;42890;44.244;22.530;2024-02-23T14:00:37;18.13;;;16.25;;
56997;SDS011;42890;44.244;22.530;2024-02-23T14:03:03;18.48;;;16.63;;
56997;SDS011;42890;44.244;22.530;2024-02-23T14:05:29;20.35;;;17.60;;
56997;SDS011;42890;44.244;22.530;2024-02-23T14:07:55;18.80;;;16.90;;
56997;SDS011;42890;44.244;22.530;2024-02-23T14:10:22;18.63;;;16.58;;
56997;SDS011;42890;44.244;22.530;2024-02-23T14:12:48;22.80;;;15.75;;
56997;SDS011;42890;44.244;22.530;2024-02-23T14:15:17;20.88;;;16.45;;
56997;SDS011;42890;44.244;22.530;2024-02-23T14:17:43;22.83;;;16.77;;
56997;SDS011;42890;44.244;22.530;2024-02-23T14:20:09;16.80;;;15.05;;
56997;SDS011;42890;44.244;22.530;2024-02-23T14:22:36;19.98;;;15.45;;
56997;SDS011;42890;44.244;22.530;2024-02-23T14:25:02;17.17;;;15.32;;
56997;SDS011;42890;44.244;22.530;2024-02-23T14:27:28;17.65;;;15.63;;
56997;SDS011;42890;44.244;22.530;2024-02-23T14:29:54;15.82;;;14.23;;
56997;SDS011;42890;44.244;22.530;2024-02-23T14:32:21;16.58;;;14.88;;
56997;SDS011;42890;44.244;22.530;2024-02-23T14:34:47;20.08;;;16.67;;
56997;SDS011;42890;44.244;22.530;2024-02-23T14:37:14;17.67;;;15.68;;
56997;SDS011;42890;44.244;22.530;2024-02-23T14:39:41;18.48;;;15.20;;
56997;SDS011;42890;44.244;22.530;2024-02-23T14:42:07;16.92;;;14.65;;
56997;SDS011;42890;44.244;22.530;2024-02-23T14:44:35;19.13;;;15.55;;
56997;SDS011;42890;44.244;22.530;2024-02-23T14:47:02;17.55;;;15.77;;
56997;SDS011;42890;44.244;22.530;2024-02-23T14:49:28;19.20;;;14.82;;
56997;SDS011;42890;44.244;22.530;2024-02-23T14:51:54;17.70;;;15.80;;
56997;SDS011;42890;44.244;22.530;2024-02-23T14:54:20;17.88;;;15.75;;
56997;SDS011;42890;44.244;22.530;2024-02-23T14:56:46;17.70;;;15.27;;
56997;SDS011;42890;44.244;22.530;2024-02-23T14:59:13;18.23;;;15.70;;
56997;SDS011;42890;44.244;22.530;2024-02-23T15:01:39;24.27;;;17.98;;
56997;SDS011;42890;44.244;22.530;2024-02-23T15:04:08;24.75;;;18.15;;
56997;SDS011;42890;44.244;22.530;2024-02-23T15:06:34;25.95;;;18.42;;
56997;SDS011;42890;44.244;22.530;2024-02-23T15:09:04;24.13;;;18.08;;
56997;SDS011;42890;44.244;22.530;2024-02-23T15:11:30;22.75;;;16.30;;
56997;SDS011;42890;44.244;22.530;2024-02-23T15:13:56;28.67;;;18.27;;
56997;SDS011;42890;44.244;22.530;2024-02-23T15:16:24;39.53;;;17.77;;
56997;SDS011;42890;44.244;22.530;2024-02-23T15:18:50;22.30;;;18.20;;
56997;SDS011;42890;44.244;22.530;2024-02-23T15:21:16;20.67;;;17.23;;
56997;SDS011;42890;44.244;22.530;2024-02-23T15:23:43;29.13;;;17.48;;
56997;SDS011;42890;44.244;22.530;2024-02-23T15:26:10;20.23;;;15.52;;
56997;SDS011;42890;44.244;22.530;2024-02-23T15:28:37;20.00;;;17.10;;
56997;SDS011;42890;44.244;22.530;2024-02-23T15:31:03;19.42;;;17.00;;
56997;SDS011;42890;44.244;22.530;2024-02-23T15:33:29;20.60;;;17.73;;
56997;SDS011;42890;44.244;22.530;2024-02-23T15:35:56;22.40;;;16.13;;
56997;SDS011;42890;44.244;22.530;2024-02-23T15:38:22;19.15;;;16.80;;
56997;SDS011;42890;44.244;22.530;2024-02-23T15:40:48;19.48;;;16.75;;
56997;SDS011;42890;44.244;22.530;2024-02-23T15:43:14;21.17;;;18.60;;
56997;SDS011;42890;44.244;22.530;2024-02-23T15:45:40;23.77;;;19.60;;
56997;SDS011;42890;44.244;22.530;2024-02-23T15:48:08;19.35;;;16.17;;
56997;SDS011;42890;44.244;22.530;2024-02-23T15:50:34;17.77;;;15.38;;
56997;SDS011;42890;44.244;22.530;2024-02-23T15:53:00;18.80;;;15.23;;
56997;SDS011;42890;44.244;22.530;2024-02-23T15:55:29;17.90;;;15.88;;
56997;SDS011;42890;44.244;22.530;2024-02-23T15:57:56;16.75;;;14.45;;
56997;SDS011;42890;44.244;22.530;2024-02-23T16:00:22;19.02;;;16.30;;
56997;SDS011;42890;44.244;22.530;2024-02-23T16:02:48;21.80;;;16.55;;
56997;SDS011;42890;44.244;22.530;2024-02-23T16:05:18;21.33;;;16.83;;
56997;SDS011;42890;44.244;22.530;2024-02-23T16:07:44;25.23;;;17.88;;
56997;SDS011;42890;44.244;22.530;2024-02-23T16:10:14;23.05;;;16.00;;
56997;SDS011;42890;44.244;22.530;2024-02-23T16:12:41;25.52;;;17.27;;
56997;SDS011;42890;44.244;22.530;2024-02-23T16:15:07;29.65;;;20.02;;
56997;SDS011;42890;44.244;22.530;2024-02-23T16:17:34;31.10;;;20.63;;
56997;SDS011;42890;44.244;22.530;2024-02-23T16:20:03;31.63;;;23.17;;
56997;SDS011;42890;44.244;22.530;2024-02-23T16:22:30;46.05;;;37.72;;
56997;SDS011;42890;44.244;22.530;2024-02-23T16:24:56;42.65;;;38.10;;
56997;SDS011;42890;44.244;22.530;2024-02-23T16:27:22;52.75;;;41.35;;
56997;SDS011;42890;44.244;22.530;2024-02-23T16:29:50;20.00;;;18.00;;
56997;SDS011;42890;44.244;22.530;2024-02-23T16:32:18;20.55;;;18.00;;
56997;SDS011;42890;44.244;22.530;2024-02-23T16:34:44;121.10;;;78.03;;
56997;SDS011;42890;44.244;22.530;2024-02-23T16:37:10;254.45;;;132.88;;
56997;SDS011;42890;44.244;22.530;2024-02-23T16:39:36;272.45;;;128.57;;
56997;SDS011;42890;44.244;22.530;2024-02-23T16:42:02;67.82;;;46.47;;
56997;SDS011;42890;44.244;22.530;2024-02-23T16:44:29;126.93;;;76.13;;
56997;SDS011;42890;44.244;22.530;2024-02-23T16:46:55;390.13;;;254.38;;
56997;SDS011;42890;44.244;22.530;2024-02-23T16:49:21;366.88;;;231.57;;
56997;SDS011;42890;44.244;22.530;2024-02-23T16:51:47;392.60;;;218.00;;
56997;SDS011;42890;44.244;22.530;2024-02-23T16:54:13;484.92;;;255.73;;
56997;SDS011;42890;44.244;22.530;2024-02-23T16:56:41;474.05;;;240.32;;
56997;SDS011;42890;44.244;22.530;2024-02-23T16:59:07;392.35;;;194.55;;
56997;SDS011;42890;44.244;22.530;2024-02-23T17:01:34;391.25;;;200.48;;
56997;SDS011;42890;44.244;22.530;2024-02-23T17:04:00;330.10;;;207.60;;
56997;SDS011;42890;44.244;22.530;2024-02-23T17:06:26;350.92;;;210.30;;
56997;SDS011;42890;44.244;22.530;2024-02-23T17:08:52;280.13;;;182.18;;
56997;SDS011;42890;44.244;22.530;2024-02-23T17:11:18;561.97;;;345.42;;
56997;SDS011;42890;44.244;22.530;2024-02-23T17:13:45;413.08;;;242.45;;
56997;SDS011;42890;44.244;22.530;2024-02-23T17:16:12;718.85;;;450.10;;
56997;SDS011;42890;44.244;22.530;2024-02-23T17:18:38;289.48;;;155.40;;
56997;SDS011;42890;44.244;22.530;2024-02-23T17:21:05;345.92;;;173.00;;
56997;SDS011;42890;44.244;22.530;2024-02-23T17:23:31;151.23;;;86.70;;
56997;SDS011;42890;44.244;22.530;2024-02-23T17:25:57;396.05;;;195.82;;
56997;SDS011;42890;44.244;22.530;2024-02-23T17:28:23;173.68;;;84.47;;
56997;SDS011;42890;44.244;22.530;2024-02-23T17:30:49;120.78;;;60.60;;
56997;SDS011;42890;44.244;22.530;2024-02-23T17:33:15;193.52;;;84.35;;
56997;SDS011;42890;44.244;22.530;2024-02-23T17:35:44;421.65;;;169.70;;
56997;SDS011;42890;44.244;22.530;2024-02-23T17:38:10;280.10;;;116.35;;
56997;SDS011;42890;44.244;22.530;2024-02-23T17:40:36;214.15;;;96.30;;
56997;SDS011;42890;44.244;22.530;2024-02-23T17:43:10;259.95;;;116.75;;
56997;SDS011;42890;44.244;22.530;2024-02-23T17:45:43;210.57;;;93.75;;
56997;SDS011;42890;44.244;22.530;2024-02-23T17:48:09;264.15;;;112.65;;
56997;SDS011;42890;44.244;22.530;2024-02-23T17:50:35;242.32;;;98.20;;
56997;SDS011;42890;44.244;22.530;2024-02-23T17:53:01;215.50;;;85.00;;
56997;SDS011;42890;44.244;22.530;2024-02-23T17:55:27;62.40;;;37.35;;
56997;SDS011;42890;44.244;22.530;2024-02-23T17:57:54;104.10;;;58.78;;
56997;SDS011;42890;44.244;22.530;2024-02-23T18:00:20;58.15;;;45.88;;
56997;SDS011;42890;44.244;22.530;2024-02-23T18:02:46;51.35;;;39.53;;
56997;SDS011;42890;44.244;22.530;2024-02-23T18:05:12;58.85;;;41.58;;
56997;SDS011;42890;44.244;22.530;2024-02-23T18:07:38;173.52;;;87.53;;
56997;SDS011;42890;44.244;22.530;2024-02-23T18:10:05;182.00;;;98.82;;
56997;SDS011;42890;44.244;22.530;2024-02-23T18:12:32;174.15;;;92.82;;
56997;SDS011;42890;44.244;22.530;2024-02-23T18:14:59;187.65;;;113.43;;
56997;SDS011;42890;44.244;22.530;2024-02-23T18:17:26;222.40;;;123.10;;
56997;SDS011;42890;44.244;22.530;2024-02-23T18:19:52;198.13;;;107.32;;
56997;SDS011;42890;44.244;22.530;2024-02-23T18:22:18;59.45;;;44.92;;
56997;SDS011;42890;44.244;22.530;2024-02-23T18:24:44;163.60;;;78.78;;
56997;SDS011;42890;44.244;22.530;2024-02-23T18:27:11;72.47;;;48.35;;
56997;SDS011;42890;44.244;22.530;2024-02-23T18:29:37;33.00;;;25.15;;
56997;SDS011;42890;44.244;22.530;2024-02-23T18:32:04;197.77;;;84.72;;
56997;SDS011;42890;44.244;22.530;2024-02-23T18:34:30;52.47;;;32.17;;
56997;SDS011;42890;44.244;22.530;2024-02-23T18:36:56;29.63;;;19.73;;
56997;SDS011;42890;44.244;22.530;2024-02-23T18:39:22;32.53;;;23.80;;
56997;SDS011;42890;44.244;22.530;2024-02-23T18:41:48;43.03;;;27.90;;
56997;SDS011;42890;44.244;22.530;2024-02-23T18:44:14;94.90;;;48.47;;
56997;SDS011;42890;44.244;22.530;2024-02-23T18:46:41;51.15;;;31.33;;
56997;SDS011;42890;44.244;22.530;2024-02-23T18:49:08;22.42;;;17.67;;
56997;SDS011;42890;44.244;22.530;2024-02-23T18:51:34;26.95;;;19.80;;
56997;SDS011;42890;44.244;22.530;2024-02-23T18:54:00;25.85;;;19.90;;
56997;SDS011;42890;44.244;22.530;2024-02-23T18:56:26;31.45;;;21.65;;
56997;SDS011;42890;44.244;22.530;2024-02-23T18:58:52;35.17;;;23.67;;
56997;SDS011;42890;44.244;22.530;2024-02-23T19:01:19;240.02;;;91.45;;
56997;SDS011;42890;44.244;22.530;2024-02-23T19:03:46;109.07;;;54.10;;
56997;SDS011;42890;44.244;22.530;2024-02-23T19:06:12;50.22;;;32.75;;
56997;SDS011;42890;44.244;22.530;2024-02-23T19:08:38;227.32;;;97.90;;
56997;SDS011;42890;44.244;22.530;2024-02-23T19:11:04;184.32;;;115.22;;
56997;SDS011;42890;44.244;22.530;2024-02-23T19:13:30;136.13;;;75.07;;
56997;SDS011;42890;44.244;22.530;2024-02-23T19:15:57;37.50;;;30.60;;
56997;SDS011;42890;44.244;22.530;2024-02-23T19:18:23;42.08;;;26.27;;
56997;SDS011;42890;44.244;22.530;2024-02-23T19:20:49;285.88;;;130.80;;
56997;SDS011;42890;44.244;22.530;2024-02-23T19:23:15;248.30;;;123.53;;
56997;SDS011;42890;44.244;22.530;2024-02-23T19:25:42;33.88;;;27.00;;
56997;SDS011;42890;44.244;22.530;2024-02-23T19:28:08;34.08;;;24.92;;
56997;SDS011;42890;44.244;22.530;2024-02-23T19:30:34;82.57;;;51.60;;
56997;SDS011;42890;44.244;22.530;2024-02-23T19:33:02;274.48;;;136.93;;
56997;SDS011;42890;44.244;22.530;2024-02-23T19:35:28;235.48;;;119.82;;
56997;SDS011;42890;44.244;22.530;2024-02-23T19:37:54;52.28;;;40.55;;
56997;SDS011;42890;44.244;22.530;2024-02-23T19:40:21;42.58;;;29.25;;
56997;SDS011;42890;44.244;22.530;2024-02-23T19:42:49;40.30;;;31.95;;
56997;SDS011;42890;44.244;22.530;2024-02-23T19:45:15;39.80;;;32.35;;
56997;SDS011;42890;44.244;22.530;2024-02-23T19:47:41;28.92;;;25.35;;
56997;SDS011;42890;44.244;22.530;2024-02-23T19:50:08;43.90;;;33.70;;
56997;SDS011;42890;44.244;22.530;2024-02-23T19:52:34;45.92;;;37.00;;
56997;SDS011;42890;44.244;22.530;2024-02-23T19:55:00;115.15;;;60.72;;
56997;SDS011;42890;44.244;22.530;2024-02-23T19:57:26;188.18;;;80.43;;
56997;SDS011;42890;44.244;22.530;2024-02-23T19:59:52;39.20;;;27.85;;
56997;SDS011;42890;44.244;22.530;2024-02-23T20:02:19;37.42;;;26.38;;
56997;SDS011;42890;44.244;22.530;2024-02-23T20:04:45;295.73;;;114.03;;
56997;SDS011;42890;44.244;22.530;2024-02-23T20:07:16;363.08;;;146.02;;
56997;SDS011;42890;44.244;22.530;2024-02-23T20:09:44;50.40;;;36.85;;
56997;SDS011;42890;44.244;22.530;2024-02-23T20:12:10;40.35;;;28.98;;
56997;SDS011;42890;44.244;22.530;2024-02-23T20:14:38;33.90;;;28.92;;
56997;SDS011;42890;44.244;22.530;2024-02-23T20:17:04;456.10;;;213.30;;
56997;SDS011;42890;44.244;22.530;2024-02-23T20:19:31;222.85;;;114.40;;
56997;SDS011;42890;44.244;22.530;2024-02-23T20:21:57;302.17;;;149.13;;
56997;SDS011;42890;44.244;22.530;2024-02-23T20:24:23;218.85;;;111.45;;
56997;SDS011;42890;44.244;22.530;2024-02-23T20:26:51;238.95;;;121.97;;
56997;SDS011;42890;44.244;22.530;2024-02-23T20:29:18;198.73;;;113.05;;
56997;SDS011;42890;44.244;22.530;2024-02-23T20:31:47;39.00;;;33.28;;
56997;SDS011;42890;44.244;22.530;2024-02-23T20:34:13;117.93;;;77.72;;
56997;SDS011;42890;44.244;22.530;2024-02-23T20:36:41;45.72;;;40.45;;
56997;SDS011;42890;44.244;22.530;2024-02-23T20:39:08;107.88;;;70.30;;
56997;SDS011;42890;44.244;22.530;2024-02-23T20:41:34;45.13;;;37.35;;
56997;SDS011;42890;44.244;22.530;2024-02-23T20:44:00;35.80;;;29.20;;
56997;SDS011;42890;44.244;22.530;2024-02-23T20:46:26;444.25;;;240.05;;
56997;SDS011;42890;44.244;22.530;2024-02-23T20:48:53;518.80;;;261.10;;
56997;SDS011;42890;44.244;22.530;2024-02-23T20:51:21;86.28;;;47.22;;
56997;SDS011;42890;44.244;22.530;2024-02-23T20:53:47;56.92;;;41.97;;
56997;SDS011;42890;44.244;22.530;2024-02-23T20:56:14;678.80;;;394.67;;
56997;SDS011;42890;44.244;22.530;2024-02-23T20:58:40;122.88;;;65.93;;
56997;SDS011;42890;44.244;22.530;2024-02-23T21:01:06;219.88;;;101.68;;
56997;SDS011;42890;44.244;22.530;2024-02-23T21:03:33;810.83;;;492.83;;
56997;SDS011;42890;44.244;22.530;2024-02-23T21:06:00;370.70;;;174.23;;
56997;SDS011;42890;44.244;22.530;2024-02-23T21:08:27;53.85;;;39.20;;
56997;SDS011;42890;44.244;22.530;2024-02-23T21:10:53;40.70;;;27.73;;
56997;SDS011;42890;44.244;22.530;2024-02-23T21:13:19;219.75;;;101.03;;
56997;SDS011;42890;44.244;22.530;2024-02-23T21:15:45;345.92;;;156.77;;
56997;SDS011;42890;44.244;22.530;2024-02-23T21:18:11;120.38;;;70.05;;
56997;SDS011;42890;44.244;22.530;2024-02-23T21:20:41;183.43;;;91.05;;
56997;SDS011;42890;44.244;22.530;2024-02-23T21:23:09;176.23;;;87.03;;
56997;SDS011;42890;44.244;22.530;2024-02-23T21:25:35;201.48;;;90.47;;
56997;SDS011;42890;44.244;22.530;2024-02-23T21:28:01;37.85;;;30.25;;
56997;SDS011;42890;44.244;22.530;2024-02-23T21:30:27;47.10;;;35.88;;
56997;SDS011;42890;44.244;22.530;2024-02-23T21:32:54;72.47;;;46.50;;
56997;SDS011;42890;44.244;22.530;2024-02-23T21:35:20;35.78;;;27.02;;
56997;SDS011;42890;44.244;22.530;2024-02-23T21:37:52;54.25;;;38.45;;
56997;SDS011;42890;44.244;22.530;2024-02-23T21:40:19;46.53;;;31.30;;
56997;SDS011;42890;44.244;22.530;2024-02-23T21:42:46;36.28;;;26.75;;
56997;SDS011;42890;44.244;22.530;2024-02-23T21:45:12;354.35;;;134.93;;
56997;SDS011;42890;44.244;22.530;2024-02-23T21:47:38;43.60;;;31.88;;
56997;SDS011;42890;44.244;22.530;2024-02-23T21:50:05;32.58;;;24.67;;
56997;SDS011;42890;44.244;22.530;2024-02-23T21:52:33;31.50;;;23.83;;
56997;SDS011;42890;44.244;22.530;2024-02-23T21:55:02;153.70;;;68.72;;
56997;SDS011;42890;44.244;22.530;2024-02-23T21:57:30;35.90;;;29.13;;
56997;SDS011;42890;44.244;22.530;2024-02-23T21:59:56;41.47;;;25.45;;
56997;SDS011;42890;44.244;22.530;2024-02-23T22:02:22;34.30;;;25.13;;
56997;SDS011;42890;44.244;22.530;2024-02-23T22:07:26;232.98;;;93.65;;
56997;SDS011;42890;44.244;22.530;2024-02-23T22:09:52;49.75;;;35.00;;
56997;SDS011;42890;44.244;22.530;2024-02-23T22:12:23;32.00;;;24.80;;
56997;SDS011;42890;44.244;22.530;2024-02-23T22:14:51;112.90;;;62.17;;
56997;SDS011;42890;44.244;22.530;2024-02-23T22:17:17;216.05;;;106.90;;
56997;SDS011;42890;44.244;22.530;2024-02-23T22:19:43;40.30;;;32.70;;
56997;SDS011;42890;44.244;22.530;2024-02-23T22:22:09;43.47;;;28.63;;
56997;SDS011;42890;44.244;22.530;2024-02-23T22:24:36;70.18;;;51.88;;
56997;SDS011;42890;44.244;22.530;2024-02-23T22:27:02;44.28;;;36.78;;
56997;SDS011;42890;44.244;22.530;2024-02-23T22:29:28;28.38;;;24.38;;
56997;SDS011;42890;44.244;22.530;2024-02-23T22:31:54;24.73;;;22.23;;
56997;SDS011;42890;44.244;22.530;2024-02-23T22:34:21;27.13;;;23.08;;
56997;SDS011;42890;44.244;22.530;2024-02-23T22:36:47;27.75;;;23.17;;
56997;SDS011;42890;44.244;22.530;2024-02-23T22:39:14;28.23;;;22.17;;
56997;SDS011;42890;44.244;22.530;2024-02-23T22:41:40;26.08;;;23.15;;
56997;SDS011;42890;44.244;22.530;2024-02-23T22:44:06;25.42;;;22.33;;
56997;SDS011;42890;44.244;22.530;2024-02-23T22:46:33;32.58;;;22.20;;
56997;SDS011;42890;44.244;22.530;2024-02-23T22:48:59;26.13;;;23.33;;
56997;SDS011;42890;44.244;22.530;2024-02-23T22:51:25;31.17;;;23.83;;
56997;SDS011;42890;44.244;22.530;2024-02-23T22:53:51;26.73;;;23.92;;